Time;durP1;ratioP1;P1;durP2;ratioP2;P2;SDS_P1;SDS_P2;PMS_P1;PMS_P2;Temp;Humidity;BMP_temperature;BMP_pressure;BME280_temperature;BME280_humidity;BME280_pressure;Samples;Min_cycle;Max_cycle;Signal;HPM_P1;HPM_P2
2022/01/11 00:01:40;;;;;;;172.25;45.08;;;-0.30;99.90;;;;;;5099015;28;20389;-56
2022/01/11 00:04:06;;;;;;;249.38;54.45;;;-0.30;99.90;;;;;;5110214;28;20051;-56
2022/01/11 00:06:39;;;;;;;216.10;56.35;;;-0.30;99.90;;;;;;5103574;28;20509;-59
2022/01/11 00:09:19;;;;;;;286.85;59.10;;;-0.20;99.90;;;;;;5092360;28;20527;-55
2022/01/11 00:11:48;;;;;;;260.23;51.83;;;-0.20;99.90;;;;;;5102696;28;20040;-57
2022/01/11 00:14:14;;;;;;;223.40;56.05;;;-0.20;99.90;;;;;;5090348;28;20058;-58
2022/01/11 00:16:40;;;;;;;362.48;74.85;;;-0.20;99.90;;;;;;5100084;28;20508;-57
2022/01/11 00:19:06;;;;;;;251.05;52.10;;;-0.20;99.90;;;;;;5091740;28;20048;-59
2022/01/11 00:21:33;;;;;;;229.00;49.13;;;-0.20;99.90;;;;;;5090774;28;20039;-58
2022/01/11 00:26:44;;;;;;;209.05;45.42;;;-0.20;99.90;;;;;;5106536;28;20036;-57
2022/01/11 00:29:09;;;;;;;240.10;49.17;;;-0.20;99.90;;;;;;5105812;28;20504;-56
2022/01/11 00:31:35;;;;;;;205.13;50.83;;;-0.20;99.90;;;;;;5099628;28;20039;-56
2022/01/11 00:34:02;;;;;;;278.33;50.93;;;-0.20;99.90;;;;;;5110246;28;20039;-58
2022/01/11 00:36:40;;;;;;;243.25;49.85;;;-0.20;99.90;;;;;;5108176;28;20065;-56
2022/01/11 00:39:06;;;;;;;256.17;53.35;;;-0.20;99.90;;;;;;5110043;28;20043;-58
2022/01/11 00:41:31;;;;;;;272.42;51.72;;;-0.20;99.90;;;;;;5107569;28;20032;-57
2022/01/11 00:43:57;;;;;;;227.57;50.27;;;-0.20;99.90;;;;;;5072202;28;20067;-57
2022/01/11 00:46:23;;;;;;;311.93;57.83;;;-0.20;99.90;;;;;;5090640;28;20526;-58
2022/01/11 00:48:48;;;;;;;290.53;52.57;;;-0.20;99.90;;;;;;5110342;28;20516;-56
2022/01/11 00:51:14;;;;;;;295.67;57.97;;;-0.20;99.90;;;;;;5109981;28;20039;-55
2022/01/11 00:53:41;;;;;;;283.87;58.93;;;-0.30;99.90;;;;;;5091530;28;20474;-55
2022/01/11 00:56:06;;;;;;;307.73;56.47;;;-0.30;99.90;;;;;;5090519;28;20501;-56
2022/01/11 00:58:32;;;;;;;346.10;65.43;;;-0.30;99.90;;;;;;5090292;28;20047;-55
2022/01/11 01:00:58;;;;;;;310.63;56.83;;;-0.30;99.90;;;;;;5090040;28;20036;-54
2022/01/11 01:03:25;;;;;;;274.27;56.63;;;-0.40;99.90;;;;;;5109002;28;20039;-58
2022/01/11 01:05:51;;;;;;;232.30;55.22;;;-0.40;99.90;;;;;;5109786;28;20085;-58
2022/01/11 01:08:16;;;;;;;372.45;65.55;;;-0.40;99.90;;;;;;5092880;28;20485;-57
2022/01/11 01:10:45;;;;;;;309.50;60.20;;;-0.40;99.90;;;;;;5089896;28;20040;-58
2022/01/11 01:13:14;;;;;;;444.70;82.85;;;-0.40;99.90;;;;;;5105611;28;20032;-57
2022/01/11 01:15:40;;;;;;;291.73;58.42;;;-0.40;99.90;;;;;;5109620;28;20051;-57
2022/01/11 01:18:06;;;;;;;355.95;63.83;;;-0.40;99.90;;;;;;5094713;28;20040;-57
2022/01/11 01:20:33;;;;;;;267.38;54.95;;;-0.40;99.90;;;;;;5090144;28;20024;-57
2022/01/11 01:22:59;;;;;;;275.35;59.13;;;-0.40;99.90;;;;;;5101645;28;20035;-56
2022/01/11 01:25:25;;;;;;;363.88;67.00;;;-0.40;99.90;;;;;;5109386;28;20063;-57
2022/01/11 01:27:52;;;;;;;290.08;57.63;;;-0.40;99.90;;;;;;5106428;28;20124;-56
2022/01/11 01:30:20;;;;;;;231.75;53.95;;;-0.40;99.90;;;;;;5091723;28;20032;-55
2022/01/11 01:32:48;;;;;;;232.63;59.47;;;-0.40;99.90;;;;;;5103431;28;20050;-57
2022/01/11 01:35:14;;;;;;;332.38;62.92;;;-0.40;99.90;;;;;;5109605;28;20046;-58
2022/01/11 01:37:40;;;;;;;251.63;52.47;;;-0.40;99.90;;;;;;5088642;28;20043;-59
2022/01/11 01:40:08;;;;;;;297.30;55.63;;;-0.40;99.90;;;;;;5109747;28;20091;-56
2022/01/11 01:42:35;;;;;;;287.52;60.45;;;-0.50;99.90;;;;;;5105314;28;20073;-56
2022/01/11 01:45:03;;;;;;;196.38;54.97;;;-0.50;99.90;;;;;;5093229;28;20046;-58
2022/01/11 01:47:29;;;;;;;276.90;65.75;;;-0.50;99.90;;;;;;5099019;28;20426;-57
2022/01/11 01:49:55;;;;;;;339.38;63.05;;;-0.50;99.90;;;;;;5104737;28;20067;-58
2022/01/11 01:52:22;;;;;;;336.42;61.80;;;-0.50;99.90;;;;;;5096571;28;20042;-56
2022/01/11 01:54:47;;;;;;;359.45;72.88;;;-0.50;99.90;;;;;;5113083;28;20484;-57
2022/01/11 01:57:13;;;;;;;328.53;65.13;;;-0.60;99.90;;;;;;5107822;28;20043;-59
2022/01/11 01:59:38;;;;;;;317.50;67.00;;;-0.60;99.90;;;;;;5116886;28;20581;-59
2022/01/11 02:02:07;;;;;;;264.97;59.93;;;-0.60;99.90;;;;;;5119529;28;20043;-59
2022/01/11 02:04:32;;;;;;;323.65;66.90;;;-0.60;99.90;;;;;;5094551;28;20035;-59
2022/01/11 02:07:01;;;;;;;346.63;71.77;;;-0.60;99.90;;;;;;5093975;28;20493;-60
2022/01/11 02:09:27;;;;;;;317.20;65.10;;;-0.60;99.90;;;;;;5093970;28;20074;-58
2022/01/11 02:11:52;;;;;;;358.53;73.70;;;-0.60;99.90;;;;;;5092994;28;20031;-59
2022/01/11 02:14:18;;;;;;;312.60;69.63;;;-0.60;99.90;;;;;;5110433;28;20050;-60
2022/01/11 02:16:44;;;;;;;338.00;68.10;;;-0.60;99.90;;;;;;5110951;28;20179;-59
2022/01/11 02:19:10;;;;;;;320.45;64.28;;;-0.60;99.90;;;;;;5096917;28;20546;-58
2022/01/11 02:21:36;;;;;;;230.63;58.55;;;-0.60;99.90;;;;;;5092364;28;20040;-59
2022/01/11 02:24:02;;;;;;;303.85;63.22;;;-0.60;99.90;;;;;;5088490;28;20040;-59
2022/01/11 02:26:28;;;;;;;279.90;66.90;;;-0.60;99.90;;;;;;5112621;28;20050;-58
2022/01/11 02:28:54;;;;;;;264.67;66.45;;;-0.60;99.90;;;;;;5105333;28;20118;-56
2022/01/11 02:31:20;;;;;;;282.40;61.15;;;-0.60;99.90;;;;;;5109564;28;20238;-58
2022/01/11 02:33:49;;;;;;;250.88;56.35;;;-0.60;99.90;;;;;;5103177;28;20079;-59
2022/01/11 02:36:30;;;;;;;289.23;64.80;;;-0.60;99.90;;;;;;5111953;28;20035;-58
2022/01/11 02:38:56;;;;;;;371.15;70.65;;;-0.60;99.90;;;;;;5098368;28;20035;-58
2022/01/11 02:41:27;;;;;;;268.88;58.47;;;-0.60;99.90;;;;;;5092671;28;20472;-57
2022/01/11 02:43:53;;;;;;;291.48;64.35;;;-0.60;99.90;;;;;;5102053;28;20039;-57
2022/01/11 02:46:21;;;;;;;401.15;76.63;;;-0.60;99.90;;;;;;5093019;28;20031;-56
2022/01/11 02:48:48;;;;;;;333.55;65.13;;;-0.60;99.90;;;;;;5110610;28;20043;-57
2022/01/11 02:51:17;;;;;;;338.85;58.78;;;-0.60;99.90;;;;;;5094014;28;20031;-57
2022/01/11 02:53:45;;;;;;;300.17;56.25;;;-0.60;99.90;;;;;;5087044;28;20039;-56
2022/01/11 02:56:12;;;;;;;383.42;71.13;;;-0.60;99.90;;;;;;5099457;28;20409;-56
2022/01/11 02:58:38;;;;;;;308.98;60.63;;;-0.70;99.90;;;;;;5104005;28;20032;-55
2022/01/11 03:01:04;;;;;;;397.48;78.68;;;-0.70;99.90;;;;;;5093081;28;20081;-57
2022/01/11 03:03:30;;;;;;;309.67;62.25;;;-0.70;99.90;;;;;;5107044;28;20047;-56
2022/01/11 03:05:58;;;;;;;284.73;60.97;;;-0.70;99.90;;;;;;5090777;28;20028;-56
2022/01/11 03:08:26;;;;;;;351.40;64.38;;;-0.80;99.90;;;;;;5067201;28;20032;-57
2022/01/11 03:10:52;;;;;;;381.95;71.45;;;-0.80;99.90;;;;;;5099491;28;20394;-58
2022/01/11 03:13:19;;;;;;;321.55;64.40;;;-0.80;99.90;;;;;;5109898;28;20176;-58
2022/01/11 03:15:46;;;;;;;300.30;65.32;;;-0.80;99.90;;;;;;5090928;28;20040;-56
2022/01/11 03:18:13;;;;;;;302.40;62.97;;;-0.80;99.90;;;;;;5092833;28;20055;-58
2022/01/11 03:20:40;;;;;;;336.65;75.65;;;-0.80;99.90;;;;;;5111291;28;20097;-57
2022/01/11 03:23:07;;;;;;;349.27;74.57;;;-0.80;99.90;;;;;;5111284;28;20535;-58
2022/01/11 03:25:34;;;;;;;257.13;65.03;;;-0.90;99.90;;;;;;5092879;28;20028;-55
2022/01/11 03:28:00;;;;;;;257.02;67.50;;;-0.90;99.90;;;;;;5104188;28;20043;-53
2022/01/11 03:30:26;;;;;;;256.35;67.03;;;-0.90;99.90;;;;;;5093490;28;20058;-57
2022/01/11 03:32:52;;;;;;;261.45;71.80;;;-0.90;99.90;;;;;;5091425;28;20036;-54
2022/01/11 03:35:18;;;;;;;266.10;70.85;;;-0.90;99.90;;;;;;5106284;28;20049;-56
2022/01/11 03:37:45;;;;;;;344.25;78.85;;;-0.90;99.90;;;;;;5102362;28;20505;-58
2022/01/11 03:40:15;;;;;;;314.05;80.20;;;-0.90;99.90;;;;;;5091981;28;20043;-55
2022/01/11 03:42:41;;;;;;;292.45;72.85;;;-0.90;99.90;;;;;;5090523;28;20500;-56
2022/01/11 03:45:08;;;;;;;243.73;71.35;;;-0.90;99.90;;;;;;5103413;28;20100;-58
2022/01/11 03:47:35;;;;;;;303.83;73.70;;;-0.90;99.90;;;;;;5106604;28;20280;-56
2022/01/11 03:50:01;;;;;;;;;;;-1.00;99.90;;;;;;5103010;28;20031;-57
2022/01/11 03:52:26;;;;;;;251.65;67.70;;;-1.00;99.90;;;;;;5110820;28;19915;-57
2022/01/11 03:57:25;;;;;;;237.27;67.05;;;-1.00;99.90;;;;;;5097720;28;20043;-56
2022/01/11 03:59:51;;;;;;;297.27;73.47;;;-0.90;99.90;;;;;;5104957;28;20051;-58
2022/01/11 04:02:18;;;;;;;296.30;71.20;;;-0.90;99.90;;;;;;5111009;28;20039;-58
2022/01/11 04:04:52;;;;;;;305.85;73.10;;;-0.90;99.90;;;;;;5103320;28;20040;-55
2022/01/11 04:07:18;;;;;;;464.42;103.80;;;-1.00;99.90;;;;;;5093475;28;20032;-54
2022/01/11 04:09:43;;;;;;;179.05;57.63;;;-0.90;99.90;;;;;;5103915;28;20393;-58
2022/01/11 04:12:09;;;;;;;324.87;77.83;;;-0.90;99.90;;;;;;5090836;28;20039;-58
2022/01/11 04:14:35;;;;;;;375.67;83.30;;;-0.90;99.90;;;;;;5094506;28;20504;-58
2022/01/11 04:17:01;;;;;;;348.42;83.60;;;-0.90;99.90;;;;;;5110617;28;20031;-57
2022/01/11 04:19:26;;;;;;;358.10;89.97;;;-0.80;99.90;;;;;;5098399;28;20382;-54
2022/01/11 04:21:52;;;;;;;361.83;90.43;;;-0.80;99.90;;;;;;5110855;28;20115;-58
2022/01/11 04:24:18;;;;;;;306.60;86.60;;;-0.80;99.90;;;;;;5109589;28;20041;-58
2022/01/11 04:26:43;;;;;;;435.77;105.35;;;-0.70;99.90;;;;;;5090298;28;20061;-58
2022/01/11 04:29:09;;;;;;;351.63;83.23;;;-0.70;99.90;;;;;;5098649;28;20035;-58
2022/01/11 04:31:35;;;;;;;339.23;93.00;;;-0.70;99.90;;;;;;5095311;28;20111;-56
2022/01/11 04:34:00;;;;;;;402.17;94.53;;;-0.70;99.90;;;;;;5111043;28;20043;-56
2022/01/11 04:36:26;;;;;;;392.00;98.23;;;-0.60;99.90;;;;;;5074662;28;20130;-55
2022/01/11 04:38:52;;;;;;;503.33;114.70;;;-0.70;99.90;;;;;;5058245;28;20104;-57
2022/01/11 04:41:17;;;;;;;376.17;97.47;;;-0.60;99.90;;;;;;5095149;28;20040;-55
2022/01/11 04:43:43;;;;;;;364.53;95.67;;;-0.60;99.90;;;;;;5108122;28;20370;-56
2022/01/11 04:46:09;;;;;;;400.15;102.57;;;-0.60;99.90;;;;;;5078341;28;20040;-58
2022/01/11 04:48:35;;;;;;;401.65;101.32;;;-0.60;99.90;;;;;;5090295;28;20408;-57
2022/01/11 04:51:03;;;;;;;329.08;89.30;;;-0.50;99.90;;;;;;5106584;28;20041;-57
2022/01/11 04:53:29;;;;;;;379.90;96.63;;;-0.50;99.90;;;;;;5109847;28;20624;-58
2022/01/11 04:55:55;;;;;;;355.67;93.60;;;-0.50;99.90;;;;;;5099651;28;20077;-59
2022/01/11 04:58:21;;;;;;;351.25;98.25;;;-0.50;99.90;;;;;;5091249;28;20286;-57
2022/01/11 05:00:48;;;;;;;340.10;94.30;;;-0.50;99.90;;;;;;5098585;28;20040;-56
2022/01/11 05:03:14;;;;;;;327.05;88.70;;;-0.50;99.90;;;;;;5101900;28;20028;-55
2022/01/11 05:05:39;;;;;;;309.97;92.60;;;-0.50;99.90;;;;;;5096156;28;20039;-58
2022/01/11 05:08:05;;;;;;;328.27;92.47;;;-0.50;99.90;;;;;;5091020;28;20282;-57
2022/01/11 05:10:32;;;;;;;318.70;95.85;;;-0.50;99.90;;;;;;5105452;28;20044;-58
2022/01/11 05:12:58;;;;;;;315.63;96.47;;;-0.40;99.90;;;;;;5101823;28;20066;-55
2022/01/11 05:15:25;;;;;;;292.63;93.70;;;-0.40;99.90;;;;;;5106678;28;20050;-56
2022/01/11 05:17:51;;;;;;;270.80;91.35;;;-0.40;99.90;;;;;;5074411;28;20225;-58
2022/01/11 05:20:17;;;;;;;271.05;83.97;;;-0.40;99.90;;;;;;5077059;28;20325;-57
2022/01/11 05:22:45;;;;;;;258.17;84.30;;;-0.40;99.90;;;;;;5106601;28;20040;-55
2022/01/11 05:25:14;;;;;;;291.60;90.95;;;-0.40;99.90;;;;;;5106005;28;20408;-57
2022/01/11 05:27:40;;;;;;;281.58;89.03;;;-0.40;99.90;;;;;;5048311;28;20044;-57
2022/01/11 05:30:07;;;;;;;286.50;91.03;;;-0.40;99.90;;;;;;5094308;28;20028;-58
2022/01/11 05:32:35;;;;;;;291.65;93.68;;;-0.40;99.90;;;;;;5082243;28;20047;-57
2022/01/11 05:35:02;;;;;;;316.17;93.22;;;-0.40;99.90;;;;;;5093401;28;20040;-57
2022/01/11 05:37:28;;;;;;;301.10;90.65;;;-0.40;99.90;;;;;;5092538;28;20079;-57
2022/01/11 05:39:53;;;;;;;289.90;90.90;;;-0.40;99.90;;;;;;5111881;28;20085;-56
2022/01/11 05:42:19;;;;;;;229.67;86.20;;;-0.40;99.90;;;;;;5103303;28;20584;-55
2022/01/11 05:44:45;;;;;;;227.48;81.00;;;-0.40;99.90;;;;;;5093263;28;20076;-55
2022/01/11 05:47:11;;;;;;;244.03;81.80;;;-0.40;99.90;;;;;;5113173;28;20078;-57
2022/01/11 05:49:36;;;;;;;235.27;83.03;;;-0.40;99.90;;;;;;5113728;28;20039;-58
2022/01/11 05:52:02;;;;;;;269.00;83.40;;;-0.40;99.90;;;;;;5105073;28;20038;-57
2022/01/11 05:54:28;;;;;;;260.45;82.65;;;-0.40;99.90;;;;;;5119277;28;20504;-58
2022/01/11 05:56:53;;;;;;;211.90;79.63;;;-0.40;99.90;;;;;;5101298;28;20067;-56
2022/01/11 05:59:19;;;;;;;198.27;73.83;;;-0.40;99.90;;;;;;5093265;28;20044;-58
2022/01/11 06:01:45;;;;;;;171.20;73.33;;;-0.40;99.90;;;;;;5106092;28;20515;-57
2022/01/11 06:04:10;;;;;;;189.33;69.60;;;-0.40;99.90;;;;;;5087220;28;20271;-56
2022/01/11 06:06:36;;;;;;;169.93;71.77;;;-0.40;99.90;;;;;;5105099;28;20043;-58
2022/01/11 06:09:03;;;;;;;180.97;70.53;;;-0.30;99.90;;;;;;5094895;28;20063;-58
2022/01/11 06:11:29;;;;;;;157.23;68.68;;;-0.30;99.90;;;;;;5083564;28;20040;-56
2022/01/11 06:13:55;;;;;;;169.07;72.15;;;-0.30;99.90;;;;;;5098970;28;20530;-58
2022/01/11 06:16:21;;;;;;;163.23;68.87;;;-0.30;99.90;;;;;;5103022;28;20067;-57
2022/01/11 06:18:47;;;;;;;162.68;71.43;;;-0.30;99.90;;;;;;5107482;28;20035;-58
2022/01/11 06:21:13;;;;;;;152.27;63.40;;;-0.30;99.90;;;;;;5105284;28;20058;-57
2022/01/11 06:23:38;;;;;;;139.07;63.13;;;-0.30;99.90;;;;;;5092677;28;20032;-59
2022/01/11 06:26:04;;;;;;;155.83;64.27;;;-0.20;99.90;;;;;;5098006;28;20134;-58
2022/01/11 06:28:30;;;;;;;146.57;67.73;;;-0.20;99.90;;;;;;5102399;28;20334;-58
2022/01/11 06:30:55;;;;;;;147.33;61.90;;;-0.20;99.90;;;;;;5095491;28;20032;-58
2022/01/11 06:33:21;;;;;;;145.80;64.87;;;-0.30;99.90;;;;;;5092371;28;20150;-59
2022/01/11 06:35:47;;;;;;;135.10;60.93;;;-0.30;99.90;;;;;;5103356;28;20459;-58
2022/01/11 06:38:14;;;;;;;127.83;61.57;;;-0.30;99.90;;;;;;5105062;28;20543;-58
2022/01/11 06:40:39;;;;;;;133.90;58.67;;;-0.30;99.90;;;;;;5082653;28;20136;-57
2022/01/11 06:43:06;;;;;;;111.22;56.58;;;-0.40;99.90;;;;;;5092462;28;20505;-58
2022/01/11 06:45:33;;;;;;;114.15;55.10;;;-0.40;99.90;;;;;;5074222;28;20047;-58
2022/01/11 06:47:59;;;;;;;108.95;54.08;;;-0.40;99.90;;;;;;5109772;28;20085;-59
2022/01/11 06:50:25;;;;;;;;;;;-0.40;99.90;;;;;;5112932;28;20046;-57
2022/01/11 06:52:50;;;;;;;109.05;50.47;;;-0.40;99.90;;;;;;5081166;28;19916;-57
2022/01/11 06:55:17;;;;;;;103.13;49.77;;;-0.40;99.90;;;;;;5101123;28;20509;-56
2022/01/11 06:57:43;;;;;;;102.95;48.25;;;-0.40;99.90;;;;;;5091845;28;20555;-55
2022/01/11 07:00:09;;;;;;;94.07;47.50;;;-0.40;99.90;;;;;;5092013;28;20146;-59
2022/01/11 07:02:35;;;;;;;86.70;45.10;;;-0.40;99.90;;;;;;5092321;28;20047;-57
2022/01/11 07:05:01;;;;;;;92.67;44.37;;;-0.40;99.90;;;;;;5091696;28;20040;-58
2022/01/11 07:07:27;;;;;;;88.65;45.38;;;-0.40;99.90;;;;;;5091704;28;20039;-59
2022/01/11 07:09:52;;;;;;;100.53;44.93;;;-0.40;99.90;;;;;;5091912;28;20115;-58
2022/01/11 07:12:18;;;;;;;84.00;44.87;;;-0.40;99.90;;;;;;5091571;28;20509;-57
2022/01/11 07:14:44;;;;;;;81.35;43.95;;;-0.50;99.90;;;;;;5091514;28;20524;-57
2022/01/11 07:17:09;;;;;;;92.17;46.50;;;-0.40;99.90;;;;;;5091560;28;20119;-57
2022/01/11 07:19:35;;;;;;;93.40;45.30;;;-0.50;99.90;;;;;;5091784;28;20432;-58
2022/01/11 07:22:01;;;;;;;77.50;42.03;;;-0.40;99.90;;;;;;5091596;28;20121;-58
2022/01/11 07:24:27;;;;;;;77.73;40.70;;;-0.50;99.90;;;;;;5091172;28;20493;-58
2022/01/11 07:26:54;;;;;;;69.00;37.22;;;-0.50;99.90;;;;;;5091259;28;20447;-56
2022/01/11 07:29:19;;;;;;;;;;;-0.50;99.90;;;;;;5102718;28;20095;-59
2022/01/11 07:31:45;;;;;;;78.20;37.60;;;-0.50;99.90;;;;;;5105805;28;20393;-59
2022/01/11 07:34:10;;;;;;;81.83;38.57;;;-0.50;99.90;;;;;;5102490;28;20072;-61
2022/01/11 07:36:37;;;;;;;84.00;41.53;;;-0.50;99.90;;;;;;5109426;28;20054;-61
2022/01/11 07:39:04;;;;;;;85.00;40.20;;;-0.40;99.90;;;;;;5091942;28;20031;-59
2022/01/11 07:41:30;;;;;;;80.80;38.53;;;-0.40;99.90;;;;;;5078683;28;20051;-57
2022/01/11 07:43:55;;;;;;;69.83;36.37;;;-0.40;99.90;;;;;;5094543;28;20378;-58
2022/01/11 07:46:21;;;;;;;72.97;39.03;;;-0.40;99.90;;;;;;5091880;28;20504;-58
2022/01/11 07:48:47;;;;;;;67.57;35.15;;;-0.40;99.90;;;;;;5104663;28;20040;-56
2022/01/11 07:51:12;;;;;;;75.80;36.07;;;-0.40;99.90;;;;;;5094694;28;20032;-56
2022/01/11 07:53:38;;;;;;;72.43;35.63;;;-0.30;99.90;;;;;;5092983;28;20728;-58
2022/01/11 07:56:04;;;;;;;71.40;35.03;;;-0.20;99.90;;;;;;5077009;28;20047;-57
2022/01/11 07:58:29;;;;;;;65.00;32.45;;;-0.20;99.90;;;;;;5093534;28;20551;-56
2022/01/11 08:00:55;;;;;;;55.40;28.53;;;-0.10;99.90;;;;;;5095318;28;20048;-57
2022/01/11 08:03:21;;;;;;;61.17;30.57;;;0.00;99.90;;;;;;5096019;28;20070;-57
2022/01/11 08:05:46;;;;;;;47.80;25.77;;;0.10;99.90;;;;;;5089858;28;20040;-57
2022/01/11 08:08:12;;;;;;;57.70;26.17;;;0.30;99.90;;;;;;5096600;28;20551;-58
2022/01/11 08:10:38;;;;;;;49.03;24.20;;;0.60;99.90;;;;;;5089882;28;20036;-56
2022/01/11 08:13:06;;;;;;;52.50;26.53;;;0.90;99.90;;;;;;5091227;28;20500;-59
2022/01/11 08:15:33;;;;;;;42.78;24.25;;;1.10;99.90;;;;;;5090496;28;20842;-56
2022/01/11 08:17:58;;;;;;;44.97;23.27;;;1.10;99.90;;;;;;5090547;28;20063;-58
2022/01/11 08:20:24;;;;;;;49.67;23.88;;;1.00;99.90;;;;;;5090184;28;20508;-55
2022/01/11 08:22:51;;;;;;;43.45;24.02;;;1.10;99.90;;;;;;5090488;28;20075;-57
2022/01/11 08:25:16;;;;;;;;;;;1.10;99.90;;;;;;5090507;28;20492;-58
2022/01/11 08:27:42;;;;;;;36.13;20.35;;;1.40;99.90;;;;;;5086095;28;19915;-58
2022/01/11 08:30:08;;;;;;;37.53;20.17;;;1.80;99.90;;;;;;5090478;28;20101;-54
2022/01/11 08:32:34;;;;;;;41.95;18.77;;;2.50;99.90;;;;;;5082055;28;20107;-57
2022/01/11 08:34:59;;;;;;;29.83;18.00;;;3.30;99.90;;;;;;5084871;28;20120;-58
2022/01/11 08:37:25;;;;;;;33.43;19.20;;;3.90;99.90;;;;;;5086922;28;20599;-55
2022/01/11 08:39:51;;;;;;;27.10;17.03;;;4.50;99.90;;;;;;5095102;28;20492;-55
2022/01/11 08:42:16;;;;;;;26.97;16.83;;;5.10;99.90;;;;;;5106152;28;20039;-57
2022/01/11 08:44:46;;;;;;;30.60;16.45;;;5.60;99.90;;;;;;5080820;28;20032;-58
2022/01/11 08:47:11;;;;;;;33.45;16.67;;;6.00;99.90;;;;;;5081009;28;20044;-56
2022/01/11 08:49:37;;;;;;;28.90;15.57;;;6.40;99.90;;;;;;5085112;28;20038;-58
2022/01/11 08:52:03;;;;;;;24.03;15.47;;;6.60;99.90;;;;;;5084977;28;20579;-58
2022/01/11 08:54:29;;;;;;;22.63;14.90;;;6.70;99.90;;;;;;5082326;28;20477;-57
2022/01/11 08:56:55;;;;;;;25.60;13.80;;;7.20;99.90;;;;;;5082323;28;20093;-57
2022/01/11 08:59:22;;;;;;;22.90;14.00;;;7.50;99.90;;;;;;5065793;28;20028;-57
2022/01/11 09:01:49;;;;;;;18.88;12.38;;;8.00;99.90;;;;;;5078671;28;20027;-58
2022/01/11 09:04:16;;;;;;;20.08;12.82;;;8.30;99.90;;;;;;5084271;28;20431;-58
2022/01/11 09:06:43;;;;;;;19.83;13.60;;;8.60;99.50;;;;;;5080562;28;20038;-58
2022/01/11 09:09:09;;;;;;;18.35;12.73;;;8.80;97.90;;;;;;5083323;28;20060;-58
2022/01/11 09:11:35;;;;;;;;;;;9.30;97.60;;;;;;5088363;28;20442;-54
2022/01/11 09:14:00;;;;;;;17.05;12.00;;;9.60;92.00;;;;;;5083495;28;19923;-58
2022/01/11 09:16:26;;;;;;;19.27;13.23;;;9.80;96.20;;;;;;5080290;28;20036;-57
2022/01/11 09:18:52;;;;;;;17.30;12.02;;;9.70;95.20;;;;;;5064302;28;20068;-58
2022/01/11 09:21:20;;;;;;;18.52;11.85;;;9.30;91.40;;;;;;5086135;28;20031;-57
2022/01/11 09:23:47;;;;;;;20.30;13.35;;;8.40;91.50;;;;;;5083967;28;20044;-56
2022/01/11 09:26:13;;;;;;;21.30;14.18;;;7.50;94.10;;;;;;5080463;28;20024;-57
2022/01/11 09:28:39;;;;;;;18.48;14.50;;;7.20;97.00;;;;;;5082144;28;20042;-57
2022/01/11 09:31:05;;;;;;;20.70;13.70;;;7.40;98.10;;;;;;5076963;28;20032;-53
2022/01/11 09:33:31;;;;;;;18.15;13.38;;;7.90;98.80;;;;;;5089051;28;20036;-53
2022/01/11 09:35:57;;;;;;;19.73;13.38;;;8.60;97.20;;;;;;5077715;28;20036;-56
2022/01/11 09:38:24;;;;;;;19.10;12.98;;;9.10;93.70;;;;;;5086308;28;20101;-59
2022/01/11 09:40:55;;;;;;;16.65;12.82;;;9.60;92.50;;;;;;5084791;28;20101;-53
2022/01/11 09:43:22;;;;;;;18.85;12.80;;;9.70;84.30;;;;;;5081872;28;20334;-56
2022/01/11 09:45:51;;;;;;;20.05;13.07;;;10.10;83.60;;;;;;5083364;28;20039;-57
2022/01/11 09:48:22;;;;;;;16.13;12.18;;;10.00;83.20;;;;;;5081369;28;20119;-53
2022/01/11 09:50:48;;;;;;;16.95;12.25;;;10.00;84.80;;;;;;5083407;28;20039;-53
2022/01/11 09:53:14;;;;;;;19.25;13.40;;;9.40;80.00;;;;;;5082320;28;20020;-57
2022/01/11 09:55:39;;;;;;;18.60;12.82;;;8.80;81.30;;;;;;5076255;28;20035;-57
2022/01/11 09:58:05;;;;;;;20.10;14.23;;;8.60;87.20;;;;;;5082056;28;20405;-57
2022/01/11 10:00:32;;;;;;;19.30;12.80;;;8.20;82.70;;;;;;5081584;28;20096;-57
2022/01/11 10:02:57;;;;;;;;;;;8.10;90.50;;;;;;5074945;28;20420;-59
2022/01/11 10:05:24;;;;;;;18.90;13.15;;;7.70;87.50;;;;;;5078019;28;19940;-56
2022/01/11 10:07:50;;;;;;;20.30;13.68;;;7.10;89.70;;;;;;5082039;28;20413;-57
2022/01/11 10:10:20;;;;;;;23.08;14.07;;;6.60;92.90;;;;;;5079969;28;20325;-56
2022/01/11 10:12:52;;;;;;;21.67;15.02;;;6.20;95.10;;;;;;5076748;28;20608;-58
2022/01/11 10:15:33;;;;;;;21.13;13.50;;;5.60;96.20;;;;;;5079420;28;20040;-57
2022/01/11 10:17:58;;;;;;;21.45;13.43;;;5.30;97.60;;;;;;5075987;28;20398;-58
2022/01/11 10:20:25;;;;;;;23.93;15.07;;;4.80;98.80;;;;;;5081366;28;20050;-54
2022/01/11 10:22:54;;;;;;;18.48;13.18;;;4.50;99.70;;;;;;5078493;28;20045;-57
2022/01/11 10:25:20;;;;;;;21.83;14.13;;;4.30;99.90;;;;;;5078861;28;20176;-55
2022/01/11 10:28:06;;;;;;;24.40;16.38;;;4.10;99.90;;;;;;5074523;28;20032;-56
2022/01/11 10:30:34;;;;;;;20.73;14.18;;;3.90;99.90;;;;;;5076037;28;20034;-54
2022/01/11 10:33:04;;;;;;;18.10;12.98;;;3.80;99.90;;;;;;5054253;28;20367;-53
2022/01/11 10:35:50;;;;;;;25.42;14.05;;;3.60;99.90;;;;;;5041270;28;20127;-54
2022/01/11 10:38:26;;;;;;;23.08;14.63;;;3.60;99.90;;;;;;5076420;28;20308;-57
2022/01/11 10:40:52;;;;;;;24.50;14.30;;;3.50;99.90;;;;;;5077571;28;20043;-52
2022/01/11 10:43:20;;;;;;;24.05;15.20;;;3.50;99.90;;;;;;5079430;28;20032;-57
2022/01/11 10:45:55;;;;;;;26.20;16.23;;;3.30;99.90;;;;;;5076055;28;20063;-53
2022/01/11 10:48:25;;;;;;;30.38;17.40;;;3.30;99.90;;;;;;5075727;28;20032;-54
2022/01/11 10:50:55;;;;;;;26.42;16.33;;;3.00;99.90;;;;;;5076799;28;20583;-55
2022/01/11 10:53:27;;;;;;;28.40;16.17;;;3.00;99.90;;;;;;5082351;28;20097;-52
2022/01/11 10:56:02;;;;;;;24.40;15.60;;;2.90;99.90;;;;;;5071459;28;20382;-58
2022/01/11 10:58:32;;;;;;;24.48;16.38;;;2.90;99.90;;;;;;5082766;28;20035;-54
2022/01/11 11:00:58;;;;;;;27.85;15.88;;;3.00;99.90;;;;;;5060988;28;20285;-56
2022/01/11 11:03:26;;;;;;;26.88;16.23;;;3.00;99.90;;;;;;5079770;28;20042;-56
2022/01/11 11:05:54;;;;;;;26.98;15.93;;;3.00;99.90;;;;;;5063976;28;20044;-53
2022/01/11 11:08:23;;;;;;;22.23;13.65;;;3.00;99.90;;;;;;5080967;28;20491;-58
2022/01/11 11:10:58;;;;;;;28.17;17.92;;;3.00;99.90;;;;;;5075440;28;20060;-55
2022/01/11 11:13:38;;;;;;;25.40;15.10;;;3.10;99.90;;;;;;5082562;28;20119;-57
2022/01/11 11:16:25;;;;;;;21.25;14.52;;;3.20;99.90;;;;;;5068544;28;20494;-57
2022/01/11 11:19:01;;;;;;;26.00;15.52;;;3.40;99.90;;;;;;5050819;28;20778;-53
2022/01/11 11:21:35;;;;;;;25.40;15.32;;;3.90;99.90;;;;;;5084688;28;20554;-57
2022/01/11 11:24:10;;;;;;;26.80;15.32;;;4.40;99.90;;;;;;5059888;28;20135;-56
2022/01/11 11:26:39;;;;;;;23.55;15.90;;;4.90;99.90;;;;;;5081527;28;20035;-57
2022/01/11 11:29:09;;;;;;;27.33;14.73;;;5.40;99.90;;;;;;5078688;28;20043;-54
2022/01/11 11:31:35;;;;;;;24.80;14.25;;;5.50;99.90;;;;;;5082386;28;20596;-58
2022/01/11 11:34:02;;;;;;;25.75;14.80;;;5.40;99.90;;;;;;5074075;28;20501;-57
2022/01/11 11:36:29;;;;;;;;;;;5.20;99.90;;;;;;5075204;28;20092;-54
2022/01/11 11:39:03;;;;;;;25.10;13.85;;;5.40;99.90;;;;;;5071308;28;19920;-55
2022/01/11 11:41:31;;;;;;;23.88;13.50;;;6.10;99.90;;;;;;5074559;28;20431;-56
2022/01/11 11:44:18;;;;;;;22.35;13.73;;;6.80;99.90;;;;;;5074987;28;20048;-56
2022/01/11 11:47:05;;;;;;;23.70;14.45;;;7.70;99.90;;;;;;5074775;28;20031;-57
2022/01/11 11:49:49;;;;;;;25.85;14.32;;;8.80;96.80;;;;;;5079517;28;20437;-55
2022/01/11 11:52:27;;;;;;;24.27;14.02;;;9.40;94.20;;;;;;5077748;28;20074;-57
2022/01/11 11:55:00;;;;;;;27.67;15.73;;;9.60;91.60;;;;;;5076172;28;20036;-54
2022/01/11 11:57:28;;;;;;;21.00;13.90;;;9.30;91.50;;;;;;5077796;28;20143;-53
2022/01/11 12:00:29;;;;;;;28.95;13.90;;;8.80;90.40;;;;;;5073048;28;20044;-58
2022/01/11 12:03:00;;;;;;;26.90;14.65;;;8.10;90.80;;;;;;5066860;28;20463;-60
2022/01/11 12:05:44;;;;;;;29.17;15.43;;;7.60;92.70;;;;;;5076340;28;20036;-56
2022/01/11 12:08:37;;;;;;;26.95;15.77;;;7.10;93.30;;;;;;5072272;28;20463;-59
2022/01/11 12:11:10;;;;;;;29.73;17.17;;;6.70;95.10;;;;;;5077667;28;20070;-58
2022/01/11 12:13:46;;;;;;;27.67;16.00;;;7.10;97.20;;;;;;5079558;28;20040;-57
2022/01/11 12:16:24;;;;;;;23.95;13.75;;;7.60;97.20;;;;;;5079247;28;20047;-56
2022/01/11 12:18:54;;;;;;;26.85;15.55;;;8.20;94.60;;;;;;5035239;28;20451;-58
2022/01/11 12:21:21;;;;;;;26.67;13.98;;;9.00;95.30;;;;;;5074451;28;20043;-56
2022/01/11 12:23:47;;;;;;;25.60;14.85;;;9.70;92.70;;;;;;5083885;28;20063;-56
2022/01/11 12:26:20;;;;;;;27.52;15.52;;;9.80;89.10;;;;;;5077138;28;20033;-57
2022/01/11 12:29:07;;;;;;;23.45;13.95;;;10.00;86.60;;;;;;5075810;28;20110;-54
2022/01/11 12:31:33;;;;;;;;;;;10.20;81.30;;;;;;5055636;28;20037;-57
2022/01/11 12:33:59;;;;;;;24.27;14.40;;;10.10;81.00;;;;;;5074299;28;19927;-57
2022/01/11 12:36:53;;;;;;;27.05;16.85;;;10.40;83.90;;;;;;5054240;28;20036;-57